sensor_id;sensor_type;location;lat;lon;timestamp;noise_LAeq;noise_LA_min;noise_LA_max;noise_LA01;noise_LA95
81666;Laerm;71083;51.796;10.952;2023-07-20T00:01:08;46.07;29.29;60.77;;
81666;Laerm;71083;51.796;10.952;2023-07-20T00:03:34;31.64;28.46;46.13;;
81666;Laerm;71083;51.796;10.952;2023-07-20T00:05:59;50.53;28.27;67.32;;
81666;Laerm;71083;51.796;10.952;2023-07-20T00:08:24;28.84;28.16;36.24;;
81666;Laerm;71083;51.796;10.952;2023-07-20T00:10:50;28.87;28.05;36.12;;
81666;Laerm;71083;51.796;10.952;2023-07-20T00:13:15;29.03;28.27;30.66;;
81666;Laerm;71083;51.796;10.952;2023-07-20T00:15:41;29.13;28.34;39.29;;
81666;Laerm;71083;51.796;10.952;2023-07-20T00:18:06;51.69;28.34;68.27;;
81666;Laerm;71083;51.796;10.952;2023-07-20T00:20:32;30.25;28.11;45.01;;
81666;Laerm;71083;51.796;10.952;2023-07-20T00:22:57;31.10;28.38;42.68;;
81666;Laerm;71083;51.796;10.952;2023-07-20T00:25:25;37.42;28.57;50.47;;
81666;Laerm;71083;51.796;10.952;2023-07-20T00:27:51;54.68;28.22;72.76;;
81666;Laerm;71083;51.796;10.952;2023-07-20T00:30:16;29.27;28.31;46.45;;
81666;Laerm;71083;51.796;10.952;2023-07-20T00:32:42;30.12;28.14;53.43;;
81666;Laerm;71083;51.796;10.952;2023-07-20T00:35:07;30.34;28.28;42.53;;
81666;Laerm;71083;51.796;10.952;2023-07-20T00:37:32;58.69;28.74;74.11;;
81666;Laerm;71083;51.796;10.952;2023-07-20T00:39:58;52.77;28.49;68.61;;
81666;Laerm;71083;51.796;10.952;2023-07-20T00:42:23;58.47;28.69;74.14;;
81666;Laerm;71083;51.796;10.952;2023-07-20T00:44:49;59.44;29.00;75.55;;
81666;Laerm;71083;51.796;10.952;2023-07-20T00:47:14;56.46;28.87;70.48;;
81666;Laerm;71083;51.796;10.952;2023-07-20T00:49:40;53.37;29.13;65.39;;
81666;Laerm;71083;51.796;10.952;2023-07-20T00:52:06;37.50;28.34;50.23;;
81666;Laerm;71083;51.796;10.952;2023-07-20T00:54:31;36.52;28.46;49.42;;
81666;Laerm;71083;51.796;10.952;2023-07-20T00:56:57;57.97;28.50;73.95;;
81666;Laerm;71083;51.796;10.952;2023-07-20T00:59:23;37.66;28.65;52.61;;
81666;Laerm;71083;51.796;10.952;2023-07-20T01:01:49;58.48;28.55;76.49;;
81666;Laerm;71083;51.796;10.952;2023-07-20T01:04:14;59.69;28.08;73.98;;
81666;Laerm;71083;51.796;10.952;2023-07-20T01:06:53;51.94;28.12;72.79;;
81666;Laerm;71083;51.796;10.952;2023-07-20T01:09:24;51.71;28.30;68.31;;
81666;Laerm;71083;51.796;10.952;2023-07-20T01:14:18;29.15;28.28;31.29;;
81666;Laerm;71083;51.796;10.952;2023-07-20T01:16:44;29.17;28.24;33.99;;
81666;Laerm;71083;51.796;10.952;2023-07-20T01:19:09;44.65;28.28;60.58;;
81666;Laerm;71083;51.796;10.952;2023-07-20T01:21:39;54.10;28.46;68.78;;
81666;Laerm;71083;51.796;10.952;2023-07-20T01:29:32;57.60;28.51;73.26;;
81666;Laerm;71083;51.796;10.952;2023-07-20T01:32:04;38.36;28.25;53.32;;
81666;Laerm;71083;51.796;10.952;2023-07-20T01:34:32;52.92;28.29;70.54;;
81666;Laerm;71083;51.796;10.952;2023-07-20T01:37:00;51.61;28.11;69.80;;
81666;Laerm;71083;51.796;10.952;2023-07-20T01:39:26;29.22;28.19;39.58;;
81666;Laerm;71083;51.796;10.952;2023-07-20T01:41:51;28.98;28.00;30.30;;
81666;Laerm;71083;51.796;10.952;2023-07-20T01:44:17;58.10;28.34;72.85;;
81666;Laerm;71083;51.796;10.952;2023-07-20T01:46:43;32.78;28.47;40.23;;
81666;Laerm;71083;51.796;10.952;2023-07-20T01:49:08;29.27;28.35;31.84;;
81666;Laerm;71083;51.796;10.952;2023-07-20T01:51:34;59.76;28.40;77.82;;
81666;Laerm;71083;51.796;10.952;2023-07-20T01:53:59;47.58;28.43;67.74;;
81666;Laerm;71083;51.796;10.952;2023-07-20T01:56:25;56.78;28.56;73.48;;
81666;Laerm;71083;51.796;10.952;2023-07-20T01:58:50;63.28;29.74;80.68;;
81666;Laerm;71083;51.796;10.952;2023-07-20T02:01:15;54.01;28.91;70.39;;
81666;Laerm;71083;51.796;10.952;2023-07-20T02:03:41;53.80;28.66;70.61;;
81666;Laerm;71083;51.796;10.952;2023-07-20T02:06:06;62.85;29.77;78.63;;
81666;Laerm;71083;51.796;10.952;2023-07-20T02:08:31;40.74;29.26;50.46;;
81666;Laerm;71083;51.796;10.952;2023-07-20T02:10:57;58.22;28.83;71.39;;
81666;Laerm;71083;51.796;10.952;2023-07-20T02:13:22;55.75;29.27;70.98;;
81666;Laerm;71083;51.796;10.952;2023-07-20T02:15:48;63.43;28.57;81.08;;
81666;Laerm;71083;51.796;10.952;2023-07-20T02:18:14;62.81;29.93;82.40;;
81666;Laerm;71083;51.796;10.952;2023-07-20T02:20:40;60.04;35.98;73.50;;
81666;Laerm;71083;51.796;10.952;2023-07-20T02:23:05;51.86;31.77;68.55;;
81666;Laerm;71083;51.796;10.952;2023-07-20T02:25:31;31.05;29.18;39.20;;
81666;Laerm;71083;51.796;10.952;2023-07-20T02:27:56;67.13;34.85;81.57;;
81666;Laerm;71083;51.796;10.952;2023-07-20T02:30:22;60.25;29.42;74.08;;
81666;Laerm;71083;51.796;10.952;2023-07-20T02:32:47;58.01;31.89;71.05;;
81666;Laerm;71083;51.796;10.952;2023-07-20T02:35:14;60.86;29.31;77.82;;
81666;Laerm;71083;51.796;10.952;2023-07-20T02:37:39;63.85;29.17;80.01;;
81666;Laerm;71083;51.796;10.952;2023-07-20T02:40:05;61.42;37.29;72.04;;
81666;Laerm;71083;51.796;10.952;2023-07-20T02:42:31;63.18;30.55;75.57;;
81666;Laerm;71083;51.796;10.952;2023-07-20T02:44:57;59.98;29.93;73.05;;
81666;Laerm;71083;51.796;10.952;2023-07-20T02:47:23;59.04;29.21;73.73;;
81666;Laerm;71083;51.796;10.952;2023-07-20T02:49:48;62.07;30.88;75.45;;
81666;Laerm;71083;51.796;10.952;2023-07-20T02:52:14;61.55;29.06;78.64;;
81666;Laerm;71083;51.796;10.952;2023-07-20T02:54:39;51.21;29.62;66.49;;
81666;Laerm;71083;51.796;10.952;2023-07-20T02:57:05;57.90;29.71;70.80;;
81666;Laerm;71083;51.796;10.952;2023-07-20T02:59:30;66.56;39.83;82.63;;
81666;Laerm;71083;51.796;10.952;2023-07-20T03:01:55;58.98;32.72;72.44;;
81666;Laerm;71083;51.796;10.952;2023-07-20T03:04:22;59.71;31.92;72.45;;
81666;Laerm;71083;51.796;10.952;2023-07-20T03:06:49;62.84;36.49;74.96;;
81666;Laerm;71083;51.796;10.952;2023-07-20T03:09:14;63.91;32.75;81.13;;
81666;Laerm;71083;51.796;10.952;2023-07-20T03:11:40;59.09;34.53;73.17;;
81666;Laerm;71083;51.796;10.952;2023-07-20T03:14:06;62.79;40.06;73.56;;
81666;Laerm;71083;51.796;10.952;2023-07-20T03:16:31;63.35;37.23;75.36;;
81666;Laerm;71083;51.796;10.952;2023-07-20T03:18:58;67.66;36.65;85.81;;
81666;Laerm;71083;51.796;10.952;2023-07-20T03:21:23;63.19;39.22;74.65;;
81666;Laerm;71083;51.796;10.952;2023-07-20T03:23:49;61.91;37.99;73.17;;
81666;Laerm;71083;51.796;10.952;2023-07-20T03:26:14;64.78;43.87;76.74;;
81666;Laerm;71083;51.796;10.952;2023-07-20T03:28:40;66.10;39.45;79.59;;
81666;Laerm;71083;51.796;10.952;2023-07-20T03:31:05;64.30;47.71;74.90;;
81666;Laerm;71083;51.796;10.952;2023-07-20T03:33:31;63.74;44.20;72.38;;
81666;Laerm;71083;51.796;10.952;2023-07-20T03:35:56;62.20;42.49;73.02;;
81666;Laerm;71083;51.796;10.952;2023-07-20T03:38:24;64.47;45.20;75.20;;
81666;Laerm;71083;51.796;10.952;2023-07-20T03:40:50;64.71;37.38;75.26;;
81666;Laerm;71083;51.796;10.952;2023-07-20T03:43:16;67.03;45.05;80.44;;
81666;Laerm;71083;51.796;10.952;2023-07-20T03:45:42;66.30;45.77;73.63;;
81666;Laerm;71083;51.796;10.952;2023-07-20T03:48:07;64.45;40.20;79.85;;
81666;Laerm;71083;51.796;10.952;2023-07-20T03:50:33;66.68;42.87;75.70;;
81666;Laerm;71083;51.796;10.952;2023-07-20T03:52:58;67.66;42.05;77.97;;
81666;Laerm;71083;51.796;10.952;2023-07-20T03:55:24;69.76;47.51;81.00;;
81666;Laerm;71083;51.796;10.952;2023-07-20T03:57:49;66.43;42.84;79.73;;
81666;Laerm;71083;51.796;10.952;2023-07-20T04:00:16;64.35;39.48;76.68;;
81666;Laerm;71083;51.796;10.952;2023-07-20T04:02:41;63.42;35.52;75.95;;
81666;Laerm;71083;51.796;10.952;2023-07-20T04:05:07;63.63;38.18;73.69;;
81666;Laerm;71083;51.796;10.952;2023-07-20T04:07:32;70.08;42.96;82.69;;
81666;Laerm;71083;51.796;10.952;2023-07-20T04:09:57;65.03;41.77;74.78;;
81666;Laerm;71083;51.796;10.952;2023-07-20T04:12:23;66.87;37.62;79.06;;
81666;Laerm;71083;51.796;10.952;2023-07-20T04:14:48;64.38;36.30;73.59;;
81666;Laerm;71083;51.796;10.952;2023-07-20T04:17:13;67.33;48.51;75.91;;
81666;Laerm;71083;51.796;10.952;2023-07-20T04:19:39;66.61;41.91;76.46;;
81666;Laerm;71083;51.796;10.952;2023-07-20T04:22:04;66.97;48.30;75.38;;
81666;Laerm;71083;51.796;10.952;2023-07-20T04:24:29;68.11;48.13;80.02;;
81666;Laerm;71083;51.796;10.952;2023-07-20T04:26:55;65.47;44.33;78.92;;
81666;Laerm;71083;51.796;10.952;2023-07-20T04:29:20;65.32;42.42;73.39;;
81666;Laerm;71083;51.796;10.952;2023-07-20T04:31:45;67.88;43.44;79.96;;
81666;Laerm;71083;51.796;10.952;2023-07-20T04:34:11;64.99;51.14;73.18;;
81666;Laerm;71083;51.796;10.952;2023-07-20T04:36:36;67.63;46.58;74.89;;
81666;Laerm;71083;51.796;10.952;2023-07-20T04:39:01;66.39;50.46;74.98;;
81666;Laerm;71083;51.796;10.952;2023-07-20T04:41:27;67.01;42.86;78.10;;
81666;Laerm;71083;51.796;10.952;2023-07-20T04:43:52;67.85;44.80;76.57;;
81666;Laerm;71083;51.796;10.952;2023-07-20T04:46:17;66.22;42.85;75.39;;
81666;Laerm;71083;51.796;10.952;2023-07-20T04:48:44;67.82;39.66;77.30;;
81666;Laerm;71083;51.796;10.952;2023-07-20T04:51:09;65.98;42.57;75.02;;
81666;Laerm;71083;51.796;10.952;2023-07-20T04:53:35;68.13;44.35;80.17;;
81666;Laerm;71083;51.796;10.952;2023-07-20T04:56:00;68.61;54.78;80.34;;
81666;Laerm;71083;51.796;10.952;2023-07-20T04:58:26;69.83;62.16;79.14;;
81666;Laerm;71083;51.796;10.952;2023-07-20T05:00:51;67.54;57.33;73.83;;
81666;Laerm;71083;51.796;10.952;2023-07-20T05:03:17;69.64;52.39;79.85;;
81666;Laerm;71083;51.796;10.952;2023-07-20T05:05:42;63.21;51.86;74.41;;
81666;Laerm;71083;51.796;10.952;2023-07-20T05:08:08;66.78;53.92;78.04;;
81666;Laerm;71083;51.796;10.952;2023-07-20T05:10:33;68.71;53.42;83.08;;
81666;Laerm;71083;51.796;10.952;2023-07-20T05:12:59;67.92;52.37;77.87;;
81666;Laerm;71083;51.796;10.952;2023-07-20T05:15:24;69.46;55.56;79.66;;
81666;Laerm;71083;51.796;10.952;2023-07-20T05:17:49;68.15;56.59;77.64;;
81666;Laerm;71083;51.796;10.952;2023-07-20T05:20:15;70.32;59.17;81.02;;
81666;Laerm;71083;51.796;10.952;2023-07-20T05:22:40;70.97;59.57;78.38;;
81666;Laerm;71083;51.796;10.952;2023-07-20T05:25:09;68.47;55.95;75.49;;
81666;Laerm;71083;51.796;10.952;2023-07-20T05:27:36;70.89;57.92;78.89;;
81666;Laerm;71083;51.796;10.952;2023-07-20T05:30:01;69.73;60.38;80.89;;
81666;Laerm;71083;51.796;10.952;2023-07-20T05:32:27;70.49;57.70;81.93;;
81666;Laerm;71083;51.796;10.952;2023-07-20T05:34:53;68.86;59.57;78.17;;
81666;Laerm;71083;51.796;10.952;2023-07-20T05:37:19;66.77;57.12;75.55;;
81666;Laerm;71083;51.796;10.952;2023-07-20T05:39:44;69.84;60.09;81.47;;
81666;Laerm;71083;51.796;10.952;2023-07-20T05:42:10;69.66;57.03;82.55;;
81666;Laerm;71083;51.796;10.952;2023-07-20T05:44:35;68.42;56.51;80.34;;
81666;Laerm;71083;51.796;10.952;2023-07-20T05:47:00;67.39;58.53;75.85;;
81666;Laerm;71083;51.796;10.952;2023-07-20T05:49:27;67.23;53.49;82.81;;
81666;Laerm;71083;51.796;10.952;2023-07-20T05:51:53;66.80;55.41;75.41;;
81666;Laerm;71083;51.796;10.952;2023-07-20T05:54:19;70.28;58.91;88.90;;
81666;Laerm;71083;51.796;10.952;2023-07-20T05:56:45;66.46;53.38;79.77;;
81666;Laerm;71083;51.796;10.952;2023-07-20T05:59:10;70.75;57.49;81.87;;
81666;Laerm;71083;51.796;10.952;2023-07-20T06:01:36;67.33;59.33;75.10;;
81666;Laerm;71083;51.796;10.952;2023-07-20T06:04:01;66.96;55.94;76.03;;
81666;Laerm;71083;51.796;10.952;2023-07-20T06:06:28;67.78;55.92;80.41;;
81666;Laerm;71083;51.796;10.952;2023-07-20T06:08:54;69.78;60.18;79.08;;
81666;Laerm;71083;51.796;10.952;2023-07-20T06:11:19;69.17;60.50;78.83;;
81666;Laerm;71083;51.796;10.952;2023-07-20T06:13:45;65.96;56.96;74.21;;
81666;Laerm;71083;51.796;10.952;2023-07-20T06:16:10;68.27;58.24;78.12;;
81666;Laerm;71083;51.796;10.952;2023-07-20T06:18:36;66.61;53.16;80.30;;
81666;Laerm;71083;51.796;10.952;2023-07-20T06:21:01;66.83;57.02;74.55;;
81666;Laerm;71083;51.796;10.952;2023-07-20T06:23:26;66.72;56.90;79.39;;
81666;Laerm;71083;51.796;10.952;2023-07-20T06:25:52;69.95;59.19;85.41;;
81666;Laerm;71083;51.796;10.952;2023-07-20T06:28:17;68.91;54.41;80.39;;
81666;Laerm;71083;51.796;10.952;2023-07-20T06:30:43;68.36;53.73;77.25;;
81666;Laerm;71083;51.796;10.952;2023-07-20T06:33:08;67.08;55.80;77.13;;
81666;Laerm;71083;51.796;10.952;2023-07-20T06:35:34;67.31;56.14;76.58;;
81666;Laerm;71083;51.796;10.952;2023-07-20T06:38:00;67.19;48.96;80.08;;
81666;Laerm;71083;51.796;10.952;2023-07-20T06:40:25;67.34;53.01;77.40;;
81666;Laerm;71083;51.796;10.952;2023-07-20T06:42:51;68.49;48.15;80.51;;
81666;Laerm;71083;51.796;10.952;2023-07-20T06:45:16;68.07;45.52;75.74;;
81666;Laerm;71083;51.796;10.952;2023-07-20T06:47:42;67.34;45.77;78.03;;
81666;Laerm;71083;51.796;10.952;2023-07-20T06:50:07;66.56;47.27;79.62;;
81666;Laerm;71083;51.796;10.952;2023-07-20T06:52:33;69.83;46.28;82.18;;
81666;Laerm;71083;51.796;10.952;2023-07-20T06:54:58;83.02;50.99;103.17;;
81666;Laerm;71083;51.796;10.952;2023-07-20T06:57:24;66.42;48.35;78.26;;
81666;Laerm;71083;51.796;10.952;2023-07-20T06:59:50;68.11;45.23;82.09;;
81666;Laerm;71083;51.796;10.952;2023-07-20T07:02:15;67.55;44.30;77.43;;
81666;Laerm;71083;51.796;10.952;2023-07-20T07:04:41;67.59;54.83;78.14;;
81666;Laerm;71083;51.796;10.952;2023-07-20T07:07:06;68.68;52.30;76.27;;
81666;Laerm;71083;51.796;10.952;2023-07-20T07:09:32;74.17;55.57;82.79;;
81666;Laerm;71083;51.796;10.952;2023-07-20T07:11:57;72.36;55.91;81.84;;
81666;Laerm;71083;51.796;10.952;2023-07-20T07:14:23;73.37;62.59;80.11;;
81666;Laerm;71083;51.796;10.952;2023-07-20T07:16:48;73.67;62.12;81.00;;
81666;Laerm;71083;51.796;10.952;2023-07-20T07:19:13;72.96;59.67;79.48;;
81666;Laerm;71083;51.796;10.952;2023-07-20T07:21:39;75.64;62.47;81.40;;
81666;Laerm;71083;51.796;10.952;2023-07-20T07:24:04;74.67;60.41;82.95;;
81666;Laerm;71083;51.796;10.952;2023-07-20T07:26:32;71.14;53.53;80.29;;
81666;Laerm;71083;51.796;10.952;2023-07-20T07:28:57;73.68;53.63;81.48;;
81666;Laerm;71083;51.796;10.952;2023-07-20T07:31:22;73.97;58.63;85.77;;
81666;Laerm;71083;51.796;10.952;2023-07-20T07:33:49;71.52;47.32;83.84;;
81666;Laerm;71083;51.796;10.952;2023-07-20T07:36:15;73.20;55.23;83.11;;
81666;Laerm;71083;51.796;10.952;2023-07-20T07:38:40;70.33;56.11;78.30;;
81666;Laerm;71083;51.796;10.952;2023-07-20T07:41:06;73.09;50.13;83.81;;
81666;Laerm;71083;51.796;10.952;2023-07-20T07:43:31;71.34;49.61;79.00;;
81666;Laerm;71083;51.796;10.952;2023-07-20T07:45:56;73.97;56.62;85.77;;
81666;Laerm;71083;51.796;10.952;2023-07-20T07:48:22;72.49;53.46;81.20;;
81666;Laerm;71083;51.796;10.952;2023-07-20T07:50:47;71.67;52.49;81.22;;
81666;Laerm;71083;51.796;10.952;2023-07-20T07:53:13;71.99;56.75;82.42;;
81666;Laerm;71083;51.796;10.952;2023-07-20T07:55:38;73.34;58.08;85.85;;
81666;Laerm;71083;51.796;10.952;2023-07-20T07:58:03;70.33;50.80;78.65;;
81666;Laerm;71083;51.796;10.952;2023-07-20T08:00:29;71.77;46.73;90.65;;
81666;Laerm;71083;51.796;10.952;2023-07-20T08:02:54;70.94;49.20;79.71;;
81666;Laerm;71083;51.796;10.952;2023-07-20T08:05:19;71.39;52.55;77.73;;
81666;Laerm;71083;51.796;10.952;2023-07-20T08:07:45;72.10;55.91;79.20;;
81666;Laerm;71083;51.796;10.952;2023-07-20T08:10:10;72.13;57.38;80.61;;
81666;Laerm;71083;51.796;10.952;2023-07-20T08:12:36;69.73;47.98;78.82;;
81666;Laerm;71083;51.796;10.952;2023-07-20T08:15:01;70.94;48.27;82.16;;
81666;Laerm;71083;51.796;10.952;2023-07-20T08:17:27;70.95;53.64;77.90;;
81666;Laerm;71083;51.796;10.952;2023-07-20T08:19:52;73.28;52.17;86.56;;
81666;Laerm;71083;51.796;10.952;2023-07-20T08:22:18;69.68;46.21;76.29;;
81666;Laerm;71083;51.796;10.952;2023-07-20T08:24:43;73.85;51.80;82.99;;
81666;Laerm;71083;51.796;10.952;2023-07-20T08:27:08;70.29;49.19;77.96;;
81666;Laerm;71083;51.796;10.952;2023-07-20T08:29:34;73.18;50.70;85.95;;
81666;Laerm;71083;51.796;10.952;2023-07-20T08:31:59;73.39;49.01;88.03;;
81666;Laerm;71083;51.796;10.952;2023-07-20T08:34:25;69.95;46.66;77.74;;
81666;Laerm;71083;51.796;10.952;2023-07-20T08:36:50;70.31;54.19;83.14;;
81666;Laerm;71083;51.796;10.952;2023-07-20T08:39:15;70.91;50.16;78.31;;
81666;Laerm;71083;51.796;10.952;2023-07-20T08:41:42;69.34;43.81;77.62;;
81666;Laerm;71083;51.796;10.952;2023-07-20T08:44:08;70.37;45.49;81.19;;
81666;Laerm;71083;51.796;10.952;2023-07-20T08:46:33;70.88;51.77;80.95;;
81666;Laerm;71083;51.796;10.952;2023-07-20T08:49:00;72.84;50.20;88.75;;
81666;Laerm;71083;51.796;10.952;2023-07-20T08:51:27;78.27;54.61;95.18;;
81666;Laerm;71083;51.796;10.952;2023-07-20T08:53:53;69.75;54.21;78.15;;
81666;Laerm;71083;51.796;10.952;2023-07-20T08:56:18;71.61;56.41;76.62;;
81666;Laerm;71083;51.796;10.952;2023-07-20T08:58:44;71.53;55.78;84.86;;
81666;Laerm;71083;51.796;10.952;2023-07-20T09:01:10;70.68;52.84;81.74;;
81666;Laerm;71083;51.796;10.952;2023-07-20T09:03:36;71.77;44.72;86.08;;
81666;Laerm;71083;51.796;10.952;2023-07-20T09:06:04;70.91;51.99;84.07;;
81666;Laerm;71083;51.796;10.952;2023-07-20T09:08:29;68.74;50.81;76.68;;
81666;Laerm;71083;51.796;10.952;2023-07-20T09:10:55;71.88;57.36;84.04;;
81666;Laerm;71083;51.796;10.952;2023-07-20T09:13:20;69.02;48.97;78.96;;
81666;Laerm;71083;51.796;10.952;2023-07-20T09:15:46;71.65;51.55;83.28;;
81666;Laerm;71083;51.796;10.952;2023-07-20T09:18:12;70.46;53.27;80.44;;
81666;Laerm;71083;51.796;10.952;2023-07-20T09:20:48;71.57;58.02;85.58;;
81666;Laerm;71083;51.796;10.952;2023-07-20T09:23:13;70.54;55.23;78.97;;
81666;Laerm;71083;51.796;10.952;2023-07-20T09:25:39;68.20;50.77;77.38;;
81666;Laerm;71083;51.796;10.952;2023-07-20T09:28:05;81.90;55.08;101.56;;
81666;Laerm;71083;51.796;10.952;2023-07-20T09:30:30;67.66;52.19;75.50;;
81666;Laerm;71083;51.796;10.952;2023-07-20T09:32:56;69.86;53.68;77.14;;
81666;Laerm;71083;51.796;10.952;2023-07-20T09:35:21;70.61;49.82;83.21;;
81666;Laerm;71083;51.796;10.952;2023-07-20T09:37:49;70.14;50.71;81.50;;
81666;Laerm;71083;51.796;10.952;2023-07-20T09:40:17;70.22;55.51;88.09;;
81666;Laerm;71083;51.796;10.952;2023-07-20T09:42:42;69.28;43.66;77.19;;
81666;Laerm;71083;51.796;10.952;2023-07-20T09:45:08;68.48;48.17;78.07;;
81666;Laerm;71083;51.796;10.952;2023-07-20T09:47:35;69.85;53.32;80.45;;
81666;Laerm;71083;51.796;10.952;2023-07-20T09:50:01;72.29;51.21;93.82;;
81666;Laerm;71083;51.796;10.952;2023-07-20T09:52:28;68.19;46.80;74.89;;
81666;Laerm;71083;51.796;10.952;2023-07-20T09:54:54;69.67;46.65;77.88;;
81666;Laerm;71083;51.796;10.952;2023-07-20T09:57:20;67.91;47.50;78.72;;
81666;Laerm;71083;51.796;10.952;2023-07-20T09:59:46;68.87;46.18;78.48;;
81666;Laerm;71083;51.796;10.952;2023-07-20T10:02:31;69.97;60.12;79.40;;
81666;Laerm;71083;51.796;10.952;2023-07-20T10:04:58;68.47;49.26;77.13;;
81666;Laerm;71083;51.796;10.952;2023-07-20T10:07:27;70.80;52.41;82.17;;
81666;Laerm;71083;51.796;10.952;2023-07-20T10:09:52;69.81;45.77;78.38;;
81666;Laerm;71083;51.796;10.952;2023-07-20T10:12:19;68.22;55.71;78.36;;
81666;Laerm;71083;51.796;10.952;2023-07-20T10:14:50;68.04;43.53;80.12;;
81666;Laerm;71083;51.796;10.952;2023-07-20T10:17:17;69.38;53.15;78.74;;
81666;Laerm;71083;51.796;10.952;2023-07-20T10:19:44;68.06;52.74;76.60;;
81666;Laerm;71083;51.796;10.952;2023-07-20T10:22:15;68.70;48.61;80.31;;
81666;Laerm;71083;51.796;10.952;2023-07-20T10:24:46;68.88;53.14;78.12;;
81666;Laerm;71083;51.796;10.952;2023-07-20T10:27:12;69.47;55.69;78.62;;
81666;Laerm;71083;51.796;10.952;2023-07-20T10:29:38;68.04;49.93;79.83;;
81666;Laerm;71083;51.796;10.952;2023-07-20T10:32:04;66.95;52.09;75.21;;
81666;Laerm;71083;51.796;10.952;2023-07-20T10:34:29;69.02;49.02;78.56;;
81666;Laerm;71083;51.796;10.952;2023-07-20T10:36:55;69.61;47.81;81.28;;
81666;Laerm;71083;51.796;10.952;2023-07-20T10:39:23;69.92;59.77;76.80;;
81666;Laerm;71083;51.796;10.952;2023-07-20T10:42:10;68.31;48.91;82.40;;
81666;Laerm;71083;51.796;10.952;2023-07-20T10:44:39;68.97;50.15;78.09;;
81666;Laerm;71083;51.796;10.952;2023-07-20T10:47:11;69.71;43.05;84.69;;
81666;Laerm;71083;51.796;10.952;2023-07-20T10:49:57;68.14;43.98;77.65;;
81666;Laerm;71083;51.796;10.952;2023-07-20T10:52:22;69.58;53.22;82.05;;
81666;Laerm;71083;51.796;10.952;2023-07-20T10:54:47;68.45;45.07;75.04;;
81666;Laerm;71083;51.796;10.952;2023-07-20T10:57:29;70.28;50.21;80.95;;
81666;Laerm;71083;51.796;10.952;2023-07-20T11:00:06;69.20;48.90;78.17;;
81666;Laerm;71083;51.796;10.952;2023-07-20T11:02:41;68.78;47.33;81.89;;
81666;Laerm;71083;51.796;10.952;2023-07-20T11:05:06;71.73;47.67;92.30;;
81666;Laerm;71083;51.796;10.952;2023-07-20T11:07:38;68.26;52.83;80.11;;
81666;Laerm;71083;51.796;10.952;2023-07-20T11:10:15;83.00;46.72;103.21;;
81666;Laerm;71083;51.796;10.952;2023-07-20T11:12:41;67.21;44.47;75.06;;
81666;Laerm;71083;51.796;10.952;2023-07-20T11:15:06;66.42;46.70;76.37;;
81666;Laerm;71083;51.796;10.952;2023-07-20T11:17:32;68.14;54.10;77.84;;
81666;Laerm;71083;51.796;10.952;2023-07-20T11:20:01;67.55;46.48;75.29;;
81666;Laerm;71083;51.796;10.952;2023-07-20T11:22:27;65.71;47.07;75.79;;
81666;Laerm;71083;51.796;10.952;2023-07-20T11:24:56;68.06;48.42;78.26;;
81666;Laerm;71083;51.796;10.952;2023-07-20T11:27:21;66.32;47.00;75.92;;
81666;Laerm;71083;51.796;10.952;2023-07-20T11:29:50;67.99;52.40;76.21;;
81666;Laerm;71083;51.796;10.952;2023-07-20T11:32:24;67.64;51.14;76.55;;
81666;Laerm;71083;51.796;10.952;2023-07-20T11:34:50;69.76;51.12;80.66;;
81666;Laerm;71083;51.796;10.952;2023-07-20T11:37:18;67.45;55.76;76.84;;
81666;Laerm;71083;51.796;10.952;2023-07-20T11:39:44;65.34;40.66;73.56;;
81666;Laerm;71083;51.796;10.952;2023-07-20T11:42:09;68.87;50.26;78.26;;
81666;Laerm;71083;51.796;10.952;2023-07-20T11:44:35;67.67;47.56;74.87;;
81666;Laerm;71083;51.796;10.952;2023-07-20T11:49:28;67.20;48.81;73.15;;
81666;Laerm;71083;51.796;10.952;2023-07-20T11:51:53;65.85;47.82;74.79;;
81666;Laerm;71083;51.796;10.952;2023-07-20T11:54:19;69.94;44.83;78.19;;
81666;Laerm;71083;51.796;10.952;2023-07-20T11:56:44;70.06;59.15;82.66;;
81666;Laerm;71083;51.796;10.952;2023-07-20T11:59:10;69.73;53.39;79.86;;
81666;Laerm;71083;51.796;10.952;2023-07-20T12:01:35;68.18;44.59;76.68;;
81666;Laerm;71083;51.796;10.952;2023-07-20T12:04:01;68.18;49.75;81.17;;
81666;Laerm;71083;51.796;10.952;2023-07-20T12:06:27;69.08;55.04;80.21;;
81666;Laerm;71083;51.796;10.952;2023-07-20T12:08:56;67.78;49.26;76.07;;
81666;Laerm;71083;51.796;10.952;2023-07-20T12:11:34;67.91;45.50;79.95;;
81666;Laerm;71083;51.796;10.952;2023-07-20T12:13:59;69.96;57.60;81.28;;
81666;Laerm;71083;51.796;10.952;2023-07-20T12:16:28;67.28;56.43;78.61;;
81666;Laerm;71083;51.796;10.952;2023-07-20T12:19:02;68.64;50.26;79.23;;
81666;Laerm;71083;51.796;10.952;2023-07-20T12:21:29;66.92;49.31;74.79;;
81666;Laerm;71083;51.796;10.952;2023-07-20T12:23:55;67.65;51.18;77.14;;
81666;Laerm;71083;51.796;10.952;2023-07-20T12:26:21;67.79;48.16;77.91;;
81666;Laerm;71083;51.796;10.952;2023-07-20T12:28:49;69.95;54.56;77.41;;
81666;Laerm;71083;51.796;10.952;2023-07-20T12:31:14;67.75;51.03;73.93;;
81666;Laerm;71083;51.796;10.952;2023-07-20T12:33:39;68.93;48.96;79.50;;
81666;Laerm;71083;51.796;10.952;2023-07-20T12:36:05;65.05;40.25;73.45;;
81666;Laerm;71083;51.796;10.952;2023-07-20T12:38:30;68.13;46.64;76.16;;
81666;Laerm;71083;51.796;10.952;2023-07-20T12:40:56;68.71;48.96;75.05;;
81666;Laerm;71083;51.796;10.952;2023-07-20T12:43:22;67.04;48.11;73.93;;
81666;Laerm;71083;51.796;10.952;2023-07-20T12:45:47;68.23;49.41;74.74;;
81666;Laerm;71083;51.796;10.952;2023-07-20T12:48:12;69.26;50.79;80.38;;
81666;Laerm;71083;51.796;10.952;2023-07-20T12:50:38;68.62;42.28;75.71;;
81666;Laerm;71083;51.796;10.952;2023-07-20T12:53:03;69.13;50.92;74.50;;
81666;Laerm;71083;51.796;10.952;2023-07-20T12:55:29;67.79;47.19;75.96;;
81666;Laerm;71083;51.796;10.952;2023-07-20T12:57:54;68.19;45.80;76.34;;
81666;Laerm;71083;51.796;10.952;2023-07-20T13:00:20;68.02;45.63;75.45;;
81666;Laerm;71083;51.796;10.952;2023-07-20T13:02:47;67.87;50.57;75.52;;
81666;Laerm;71083;51.796;10.952;2023-07-20T13:05:12;68.55;49.90;78.24;;
81666;Laerm;71083;51.796;10.952;2023-07-20T13:07:38;68.39;48.29;75.46;;
81666;Laerm;71083;51.796;10.952;2023-07-20T13:10:04;69.55;56.16;78.05;;
81666;Laerm;71083;51.796;10.952;2023-07-20T13:12:31;67.53;46.04;73.94;;
81666;Laerm;71083;51.796;10.952;2023-07-20T13:14:56;67.96;49.25;72.81;;
81666;Laerm;71083;51.796;10.952;2023-07-20T13:17:22;68.27;51.67;77.26;;
81666;Laerm;71083;51.796;10.952;2023-07-20T13:19:47;67.09;48.78;76.04;;
81666;Laerm;71083;51.796;10.952;2023-07-20T13:22:13;67.49;54.29;73.34;;
81666;Laerm;71083;51.796;10.952;2023-07-20T13:24:40;67.37;49.73;76.88;;
81666;Laerm;71083;51.796;10.952;2023-07-20T13:27:05;68.76;53.53;75.30;;
81666;Laerm;71083;51.796;10.952;2023-07-20T13:29:30;68.98;53.38;79.31;;
81666;Laerm;71083;51.796;10.952;2023-07-20T13:31:57;68.98;45.24;78.11;;
81666;Laerm;71083;51.796;10.952;2023-07-20T13:34:22;69.30;52.33;77.99;;
81666;Laerm;71083;51.796;10.952;2023-07-20T13:36:49;67.69;54.89;73.87;;